Time;durP1;ratioP1;P1;durP2;ratioP2;P2;SDS_P1;SDS_P2;PMS_P1;PMS_P2;Temp;Humidity;BMP_temperature;BMP_pressure;BME280_temperature;BME280_humidity;BME280_pressure;Samples;Min_cycle;Max_cycle;Signal;HPM_P1;HPM_P2
2022/01/02 00:01:58;;;;;;;12.47;10.00;;;;;;;7.09;97.55;99353.13;5018295;28;102792;-71
2022/01/02 00:04:36;;;;;;;9.70;8.70;;;;;;;7.06;98.06;99353.25;5011072;28;104130;-71
2022/01/02 00:07:06;;;;;;;11.10;9.90;;;;;;;7.04;97.78;99349.00;5018999;28;103253;-71
2022/01/02 00:09:35;;;;;;;9.47;8.50;;;;;;;7.04;97.42;99346.38;5019713;27;102748;-71
2022/01/02 00:12:07;;;;;;;9.17;8.27;;;;;;;7.01;96.87;99350.00;5020301;28;102906;-71
2022/01/02 00:14:37;;;;;;;10.83;9.03;;;;;;;6.86;97.61;99354.19;5019872;28;104002;-71
2022/01/02 00:17:07;;;;;;;11.87;10.53;;;;;;;6.79;98.02;99354.56;5013755;28;103219;-71
2022/01/02 00:19:40;;;;;;;13.13;10.83;;;;;;;6.81;98.42;99353.56;5008667;28;103160;-76
2022/01/02 00:22:15;;;;;;;9.53;8.63;;;;;;;6.87;97.79;99341.91;5018228;27;103841;-77
2022/01/02 00:24:46;;;;;;;10.03;7.83;;;;;;;6.85;97.53;99333.25;5021953;27;103510;-77
2022/01/02 00:27:16;;;;;;;15.00;11.37;;;;;;;6.69;97.94;99337.50;5017587;28;102580;-77
2022/01/02 00:29:46;;;;;;;12.87;10.17;;;;;;;6.66;98.36;99340.28;5011181;28;102778;-76
2022/01/02 00:32:15;;;;;;;11.67;9.87;;;;;;;6.70;98.67;99344.47;5020410;27;102893;-76
2022/01/02 00:34:50;;;;;;;10.60;9.50;;;;;;;6.59;99.27;99342.34;5022090;27;103279;-71
2022/01/02 00:37:20;;;;;;;13.00;11.30;;;;;;;6.62;98.77;99339.59;5020370;28;103188;-71
2022/01/02 00:39:48;;;;;;;13.10;10.60;;;;;;;6.63;98.03;99345.66;5019128;27;102660;-71
2022/01/02 00:42:29;;;;;;;14.73;11.70;;;;;;;6.53;97.34;99349.66;5019765;28;102731;-71
2022/01/02 00:45:01;;;;;;;8.47;7.60;;;;;;;6.65;97.96;99336.78;5008192;28;103988;-71
2022/01/02 00:47:38;;;;;;;9.63;8.00;;;;;;;6.70;96.89;99336.59;5018887;27;103296;-71
2022/01/02 00:50:12;;;;;;;9.23;7.57;;;;;;;6.69;96.03;99327.00;5011512;28;102788;-71
2022/01/02 00:52:43;;;;;;;7.80;6.93;;;;;;;6.56;94.67;99325.88;5006467;28;102670;-71
2022/01/02 00:55:13;;;;;;;9.23;8.00;;;;;;;6.54;94.52;99327.75;5010976;28;104194;-71
2022/01/02 00:57:44;;;;;;;9.07;7.07;;;;;;;6.47;95.42;99329.78;5005932;28;104187;-72
2022/01/02 01:00:14;;;;;;;11.73;9.70;;;;;;;6.38;94.02;99317.94;5007409;28;102694;-71
2022/01/02 01:02:46;;;;;;;13.60;10.97;;;;;;;5.87;95.70;99314.16;5008279;28;102731;-71
2022/01/02 01:05:22;;;;;;;12.20;10.33;;;;;;;6.03;98.22;99313.44;5009589;28;105893;-71
2022/01/02 01:07:54;;;;;;;13.20;10.90;;;;;;;5.92;97.47;99318.28;5004793;28;103039;-71
2022/01/02 01:10:24;;;;;;;16.30;11.47;;;;;;;5.68;99.02;99317.53;5009718;27;102820;-71
2022/01/02 01:12:54;;;;;;;13.30;11.90;;;;;;;5.63;100.00;99318.66;5014122;28;104117;-71
2022/01/02 01:15:26;;;;;;;11.50;9.77;;;;;;;5.77;100.00;99303.19;5011148;28;104009;-71
2022/01/02 01:17:56;;;;;;;14.53;11.50;;;;;;;5.77;100.00;99303.19;5015547;28;104075;-71
2022/01/02 01:20:28;;;;;;;11.60;9.63;;;;;;;5.87;100.00;99293.19;5017009;27;102610;-71
2022/01/02 01:22:56;;;;;;;12.00;10.67;;;;;;;5.98;100.00;99302.25;5014053;28;103909;-70
2022/01/02 01:25:25;;;;;;;12.53;9.00;;;;;;;6.00;100.00;99296.97;5018159;27;103225;-71
2022/01/02 01:27:55;;;;;;;12.43;10.97;;;;;;;6.05;100.00;99285.34;4999640;28;104232;-71
2022/01/02 01:30:26;;;;;;;11.63;8.90;;;;;;;6.07;100.00;99274.78;5011153;28;102682;-71
2022/01/02 01:32:55;;;;;;;9.47;8.53;;;;;;;6.13;99.92;99280.59;5017902;28;103166;-71
2022/01/02 01:35:24;;;;;;;11.03;8.93;;;;;;;6.11;99.97;99290.31;5013203;28;104669;-71
2022/01/02 01:37:53;;;;;;;13.80;10.40;;;;;;;6.18;100.00;99289.13;5018069;28;103322;-71
2022/01/02 01:40:22;;;;;;;14.70;11.27;;;;;;;6.21;100.00;99282.88;5013136;27;102729;-71
2022/01/02 01:43:00;;;;;;;13.63;10.33;;;;;;;6.21;100.00;99283.72;5018045;27;103931;-71
2022/01/02 01:45:36;;;;;;;12.43;10.67;;;;;;;6.15;100.00;99286.63;5013225;28;105915;-71
2022/01/02 01:48:07;;;;;;;12.07;10.73;;;;;;;6.21;100.00;99281.09;5016816;27;104609;-71
2022/01/02 01:50:40;;;;;;;10.13;8.90;;;;;;;6.25;100.00;99274.81;5007695;28;102817;-71
2022/01/02 01:53:16;;;;;;;10.90;9.77;;;;;;;6.23;100.00;99281.88;5012421;28;102948;-71
2022/01/02 01:55:44;;;;;;;11.63;10.43;;;;;;;6.26;99.83;99276.50;5007626;28;104217;-71
2022/01/02 01:58:13;;;;;;;13.20;10.40;;;;;;;6.13;100.00;99275.34;5010088;28;102929;-71
2022/01/02 02:00:45;;;;;;;11.50;10.30;;;;;;;6.13;100.00;99283.22;5014526;27;102599;-71
2022/01/02 02:03:30;;;;;;;10.97;9.20;;;;;;;6.19;100.00;99280.34;5006367;28;104328;-71
2022/01/02 02:05:59;;;;;;;11.23;9.90;;;;;;;6.11;100.00;99271.97;5012916;28;104213;-71
2022/01/02 02:08:28;;;;;;;11.87;10.70;;;;;;;6.14;100.00;99263.09;5013651;28;103294;-71
2022/01/02 02:10:58;;;;;;;10.93;9.87;;;;;;;6.15;100.00;99273.50;5010115;28;102732;-71
2022/01/02 02:13:30;;;;;;;13.23;10.90;;;;;;;5.97;100.00;99269.09;5016899;28;102705;-71
2022/01/02 02:16:03;;;;;;;11.47;10.27;;;;;;;5.98;100.00;99255.06;5013503;27;105076;-71
2022/01/02 02:18:32;;;;;;;11.30;9.87;;;;;;;6.01;100.00;99254.91;5006731;28;104834;-71
2022/01/02 02:21:01;;;;;;;11.00;9.80;;;;;;;6.01;100.00;99254.91;5022733;27;102719;-71
2022/01/02 02:23:32;;;;;;;11.03;9.83;;;;;;;6.00;100.00;99242.75;5022959;28;103059;-71
2022/01/02 02:26:00;;;;;;;11.60;9.90;;;;;;;5.99;100.00;99246.28;5011296;28;104183;-71
2022/01/02 02:28:29;;;;;;;9.77;8.70;;;;;;;6.08;99.82;99232.75;5023426;27;103158;-71
2022/01/02 02:31:00;;;;;;;10.53;8.73;;;;;;;6.03;99.60;99237.34;5018876;27;102669;-71
2022/01/02 02:33:28;;;;;;;11.80;10.27;;;;;;;5.95;100.00;99234.19;5015131;28;102616;-71
2022/01/02 02:35:56;;;;;;;11.47;10.17;;;;;;;5.91;100.00;99229.19;5013292;27;103149;-71
2022/01/02 02:38:26;;;;;;;12.47;9.50;;;;;;;5.93;99.72;99225.56;5012362;27;104172;-71
2022/01/02 02:40:59;;;;;;;9.60;8.60;;;;;;;6.00;100.00;99221.75;5010055;28;102841;-71
2022/01/02 02:43:34;;;;;;;12.70;10.97;;;;;;;5.97;99.39;99224.50;5022018;27;102731;-71
2022/01/02 02:49:05;;;;;;;12.37;10.10;;;;;;;5.92;98.92;99218.63;5005585;28;103280;-71
2022/01/02 02:51:44;;;;;;;10.27;8.77;;;;;;;6.02;98.86;99214.66;5007718;28;102986;-71
2022/01/02 02:54:20;;;;;;;11.53;9.97;;;;;;;5.87;99.32;99202.22;5014368;28;103146;-77
2022/01/02 02:56:57;;;;;;;11.63;9.60;;;;;;;5.81;99.78;99197.25;5013541;27;104310;-71
2022/01/02 02:59:30;;;;;;;9.83;8.63;;;;;;;5.82;99.96;99185.84;5006326;28;103319;-71
2022/01/02 03:02:00;;;;;;;9.63;8.57;;;;;;;5.91;99.63;99182.81;5011190;27;102783;-76
2022/01/02 03:04:33;;;;;;;10.40;9.03;;;;;;;5.89;98.74;99178.56;5012255;28;104029;-77
2022/01/02 03:07:02;;;;;;;11.00;8.97;;;;;;;5.90;98.76;99175.00;5016863;28;103325;-77
2022/01/02 03:09:41;;;;;;;9.73;8.63;;;;;;;5.78;98.80;99173.78;5016250;28;105344;-76
2022/01/02 03:12:12;;;;;;;12.10;9.43;;;;;;;5.74;99.24;99172.22;5020880;27;102708;-77
2022/01/02 03:14:45;;;;;;;9.73;8.73;;;;;;;5.81;98.77;99173.66;5009906;28;102900;-70
2022/01/02 03:17:19;;;;;;;9.57;8.23;;;;;;;5.71;99.36;99173.22;5013166;28;105806;-71
2022/01/02 03:19:48;;;;;;;10.73;9.20;;;;;;;5.72;99.14;99168.81;5006065;28;104136;-71
2022/01/02 03:22:18;;;;;;;9.53;8.43;;;;;;;5.84;98.82;99163.00;5003984;28;102713;-71
2022/01/02 03:24:49;;;;;;;9.80;8.80;;;;;;;5.87;97.76;99162.91;5009871;28;104100;-70
2022/01/02 03:27:20;;;;;;;10.97;8.47;;;;;;;5.82;98.37;99162.22;5016247;28;104563;-70
2022/01/02 03:29:48;;;;;;;9.67;8.53;;;;;;;5.84;98.31;99169.09;5008793;27;104340;-70
2022/01/02 03:32:17;;;;;;;10.27;8.43;;;;;;;5.78;98.14;99168.56;5013859;28;102647;-71
2022/01/02 03:34:46;;;;;;;8.97;8.07;;;;;;;5.76;98.72;99154.63;5020612;27;104440;-71
2022/01/02 03:37:14;;;;;;;8.60;7.80;;;;;;;5.82;98.06;99159.59;5011257;28;103112;-70
2022/01/02 03:39:42;;;;;;;9.23;8.37;;;;;;;5.74;98.25;99162.59;5005634;28;106310;-71
2022/01/02 03:42:12;;;;;;;9.53;8.53;;;;;;;5.73;97.70;99160.03;5011407;28;102760;-70
2022/01/02 03:44:40;;;;;;;9.27;8.27;;;;;;;5.76;98.26;99159.88;5018974;27;102718;-70
2022/01/02 03:47:11;;;;;;;8.20;7.40;;;;;;;5.73;98.09;99160.03;5015444;27;103672;-70
2022/01/02 03:49:40;;;;;;;10.80;8.10;;;;;;;5.80;97.07;99149.19;5021220;27;103151;-71
2022/01/02 03:52:09;;;;;;;7.73;6.93;;;;;;;5.78;97.55;99152.81;5008539;27;102614;-70
2022/01/02 03:54:37;;;;;;;9.40;8.40;;;;;;;5.75;97.08;99145.91;5019540;28;102683;-71
2022/01/02 03:57:06;;;;;;;9.23;8.23;;;;;;;5.77;97.46;99141.47;5010126;28;106336;-70
2022/01/02 03:59:35;;;;;;;9.97;8.50;;;;;;;5.76;97.25;99138.91;5007687;28;103220;-70
2022/01/02 04:02:04;;;;;;;8.97;7.67;;;;;;;5.79;97.43;99134.38;5019938;28;102753;-71
2022/01/02 04:04:35;;;;;;;10.97;7.57;;;;;;;5.70;97.30;99136.56;5011064;28;102838;-71
2022/01/02 04:07:04;;;;;;;8.93;7.73;;;;;;;5.70;97.55;99133.94;5012397;28;104024;-70
2022/01/02 04:09:32;;;;;;;8.90;8.00;;;;;;;5.64;97.06;99140.31;5015454;27;105142;-70
2022/01/02 04:12:03;;;;;;;8.03;7.10;;;;;;;5.74;97.27;99135.50;5020314;27;102969;-70
2022/01/02 04:14:35;;;;;;;8.83;7.90;;;;;;;5.70;96.51;99131.31;5009089;28;102925;-70
2022/01/02 04:17:06;;;;;;;8.40;7.27;;;;;;;5.63;97.42;99120.28;5016392;28;103833;-71
2022/01/02 04:19:35;;;;;;;9.13;8.23;;;;;;;5.67;97.12;99113.97;5008913;28;103194;-70
2022/01/02 04:22:03;;;;;;;9.20;8.23;;;;;;;5.47;96.05;99123.66;5017590;27;102709;-70
2022/01/02 04:24:31;;;;;;;9.27;8.17;;;;;;;5.22;98.39;99127.38;5009634;28;104030;-70
2022/01/02 04:26:59;;;;;;;9.83;8.60;;;;;;;4.96;99.19;99121.56;5013700;28;103163;-77
2022/01/02 04:29:27;;;;;;;9.67;8.67;;;;;;;4.96;100.00;99119.81;5014066;28;103405;-76
2022/01/02 04:31:58;;;;;;;9.10;8.10;;;;;;;5.11;99.85;99128.75;5016576;28;103018;-77
2022/01/02 04:34:26;;;;;;;9.80;8.30;;;;;;;4.99;100.00;99124.91;5003996;28;102689;-77
2022/01/02 04:36:56;;;;;;;10.60;8.77;;;;;;;5.17;99.67;99118.84;5008864;28;103031;-77
2022/01/02 04:39:25;;;;;;;9.87;8.00;;;;;;;5.05;99.48;99119.38;5013721;28;103254;-76
2022/01/02 04:41:54;;;;;;;9.23;8.33;;;;;;;5.06;99.13;99110.63;5014934;28;102996;-70
2022/01/02 04:44:23;;;;;;;8.93;8.03;;;;;;;5.28;99.57;99114.94;5019370;28;104423;-70
2022/01/02 04:46:51;;;;;;;6.90;6.17;;;;;;;5.43;98.43;99109.00;5010301;28;103190;-70
2022/01/02 04:49:21;;;;;;;8.77;7.67;;;;;;;5.45;96.87;99099.28;5007093;28;103208;-70
2022/01/02 04:51:51;;;;;;;7.50;6.80;;;;;;;5.51;97.35;99091.16;5007755;28;103166;-70
2022/01/02 04:54:19;;;;;;;8.93;8.03;;;;;;;5.38;97.43;99085.63;5009046;28;103127;-70
2022/01/02 04:56:48;;;;;;;8.87;7.73;;;;;;;5.28;98.95;99088.75;5019333;27;103298;-70
2022/01/02 04:59:16;;;;;;;8.87;7.97;;;;;;;5.26;99.05;99078.31;5010833;28;103297;-71
2022/01/02 05:01:46;;;;;;;9.33;8.17;;;;;;;5.13;100.00;99088.50;5010582;28;102769;-70
2022/01/02 05:04:15;;;;;;;9.30;8.40;;;;;;;5.28;99.48;99083.50;5005839;28;103639;-70
2022/01/02 05:06:45;;;;;;;8.33;7.50;;;;;;;5.45;98.95;99080.94;5019336;27;103250;-70
2022/01/02 05:09:15;;;;;;;8.37;7.57;;;;;;;5.42;98.55;99081.94;5013300;28;103189;-71
2022/01/02 05:11:45;;;;;;;7.70;6.90;;;;;;;5.58;98.13;99084.72;5022017;27;104091;-76
2022/01/02 05:14:13;;;;;;;8.47;7.57;;;;;;;5.57;97.95;99075.13;5011364;28;103128;-76
2022/01/02 05:16:42;;;;;;;7.13;6.43;;;;;;;5.57;98.22;99072.53;5014023;28;103786;-76
2022/01/02 05:19:12;;;;;;;8.20;7.33;;;;;;;5.47;97.52;99063.41;5023917;27;105341;-76
2022/01/02 05:21:42;;;;;;;9.70;8.50;;;;;;;5.29;97.88;99075.56;5017811;28;103143;-76
2022/01/02 05:24:16;;;;;;;8.47;7.57;;;;;;;5.44;97.97;99069.63;5010153;28;104318;-77
2022/01/02 05:26:44;;;;;;;8.87;7.90;;;;;;;5.47;98.71;99074.72;5016446;27;103934;-76
2022/01/02 05:29:13;;;;;;;7.23;6.37;;;;;;;5.58;98.29;99055.88;5010279;28;103471;-76
2022/01/02 05:31:41;;;;;;;7.87;6.83;;;;;;;5.61;97.20;99061.00;5005655;28;102685;-76
2022/01/02 05:34:10;;;;;;;7.40;6.57;;;;;;;5.67;97.28;99060.72;5007379;28;104229;-76
2022/01/02 05:36:38;;;;;;;8.10;7.27;;;;;;;5.63;96.62;99064.38;5020070;27;103339;-77
2022/01/02 05:39:07;;;;;;;7.83;7.13;;;;;;;5.56;96.66;99058.56;5016257;28;104307;-76
2022/01/02 05:41:38;;;;;;;7.33;6.63;;;;;;;5.46;98.36;99064.31;5015150;28;103081;-76
2022/01/02 05:44:06;;;;;;;10.03;7.37;;;;;;;5.38;98.05;99063.81;5004541;28;103960;-76
2022/01/02 05:46:36;;;;;;;8.70;7.40;;;;;;;5.49;97.81;99054.53;5015221;27;103957;-76
2022/01/02 05:49:04;;;;;;;7.47;6.67;;;;;;;5.64;97.90;99055.59;5006631;28;104284;-76
2022/01/02 05:51:34;;;;;;;7.97;7.07;;;;;;;5.59;97.63;99047.06;5002496;28;102773;-77
2022/01/02 05:54:03;;;;;;;7.90;7.10;;;;;;;5.52;98.20;99045.69;5016471;27;102620;-76
2022/01/02 05:56:31;;;;;;;8.30;7.07;;;;;;;5.54;97.54;99049.06;5013089;28;105221;-76
2022/01/02 05:59:01;;;;;;;8.70;6.97;;;;;;;5.60;96.77;99041.78;5013873;28;105965;-76
2022/01/02 06:01:29;;;;;;;7.37;6.53;;;;;;;5.50;97.32;99039.66;5016733;27;102629;-75
2022/01/02 06:03:59;;;;;;;7.70;6.50;;;;;;;5.57;96.40;99031.44;5018949;27;102691;-75
2022/01/02 06:06:27;;;;;;;7.63;6.70;;;;;;;5.54;96.76;99038.59;5006519;28;105822;-75
2022/01/02 06:08:56;;;;;;;7.53;6.83;;;;;;;5.53;96.42;99042.16;5010805;28;104209;-76
2022/01/02 06:11:24;;;;;;;7.30;6.60;;;;;;;5.59;95.88;99026.97;5008590;28;102981;-75
2022/01/02 06:13:52;;;;;;;7.43;6.73;;;;;;;5.62;95.59;99020.72;5004992;27;102836;-75
2022/01/02 06:16:25;;;;;;;7.63;6.77;;;;;;;5.59;95.99;99018.25;5008343;28;104162;-75
2022/01/02 06:18:54;;;;;;;7.60;6.70;;;;;;;5.56;95.40;99021.00;5033660;27;104384;-75
2022/01/02 06:21:22;;;;;;;7.97;5.90;;;;;;;5.72;95.08;99019.38;5015215;28;102994;-75
2022/01/02 06:23:50;;;;;;;6.87;6.17;;;;;;;5.61;95.46;99014.66;5005894;28;104153;-76
2022/01/02 06:26:19;;;;;;;7.50;6.73;;;;;;;5.65;95.06;99020.59;5008996;28;104740;-71
2022/01/02 06:28:47;;;;;;;7.30;6.50;;;;;;;5.61;94.65;99009.41;5005359;28;105534;-71
2022/01/02 06:31:16;;;;;;;7.03;6.33;;;;;;;5.50;95.52;99010.84;5010296;28;103209;-70
2022/01/02 06:33:50;;;;;;;7.37;6.67;;;;;;;5.53;95.13;99013.31;5009732;28;102940;-71
2022/01/02 06:36:18;;;;;;;6.67;6.07;;;;;;;5.65;94.36;99010.09;5015715;28;103826;-71
2022/01/02 06:38:46;;;;;;;8.47;6.60;;;;;;;5.39;94.70;99013.94;5008061;28;103355;-70
2022/01/02 06:41:16;;;;;;;6.63;5.93;;;;;;;5.50;94.76;99023.94;5004513;28;103049;-71
2022/01/02 06:43:51;;;;;;;6.57;5.97;;;;;;;5.53;94.11;99022.00;5005800;28;103747;-71
2022/01/02 06:46:23;;;;;;;7.40;6.60;;;;;;;5.60;94.22;99017.34;5006870;28;105069;-70
2022/01/02 06:48:54;;;;;;;6.30;5.40;;;;;;;5.69;93.99;99027.41;5011814;27;103357;-70
2022/01/02 06:51:42;;;;;;;5.80;5.30;;;;;;;5.72;93.21;99022.00;5019362;27;102656;-70
2022/01/02 06:54:10;;;;;;;6.27;5.67;;;;;;;5.80;93.22;99020.72;5013056;28;102807;-75
2022/01/02 06:56:38;;;;;;;6.30;5.70;;;;;;;5.68;93.49;99007.34;5020623;27;103757;-70
2022/01/02 06:59:07;;;;;;;7.17;5.63;;;;;;;5.64;93.55;98997.94;5023902;27;103166;-70
2022/01/02 07:01:35;;;;;;;6.20;5.60;;;;;;;5.61;93.68;99003.31;5023633;27;102558;-75
2022/01/02 07:04:05;;;;;;;4.90;4.50;;;;;;;5.65;93.66;99002.25;5014753;27;103719;-75
2022/01/02 07:06:33;;;;;;;6.43;5.43;;;;;;;5.68;93.02;98995.09;5016127;28;102708;-76
2022/01/02 07:09:01;;;;;;;6.40;5.80;;;;;;;5.73;93.25;98993.09;5014077;28;103219;-75
2022/01/02 07:11:29;;;;;;;7.47;6.13;;;;;;;5.49;93.48;98990.78;5022171;27;103624;-76
2022/01/02 07:13:59;;;;;;;6.90;6.17;;;;;;;5.59;93.78;98999.91;5025344;27;102735;-75
2022/01/02 07:16:27;;;;;;;5.60;5.10;;;;;;;5.70;93.30;98997.63;5036721;27;103979;-76
2022/01/02 07:18:55;;;;;;;5.40;4.90;;;;;;;5.79;92.89;99002.44;5038627;27;103239;-70
2022/01/02 07:21:25;;;;;;;5.73;5.13;;;;;;;5.85;92.58;99002.16;5037344;27;102476;-71
2022/01/02 07:23:54;;;;;;;6.30;5.00;;;;;;;5.93;92.39;98994.78;5037947;27;102606;-76
2022/01/02 07:26:22;;;;;;;6.70;6.03;;;;;;;5.77;93.04;98989.41;5031539;28;102981;-71
2022/01/02 07:28:51;;;;;;;6.23;5.40;;;;;;;5.84;92.69;98996.03;5018689;28;103245;-76
2022/01/02 07:31:19;;;;;;;5.40;4.90;;;;;;;5.88;92.30;98985.44;5025233;27;102593;-71
2022/01/02 07:33:49;;;;;;;6.67;6.00;;;;;;;5.64;93.22;98976.97;5021170;27;102632;-71
2022/01/02 07:36:17;;;;;;;6.07;5.57;;;;;;;5.52;94.25;98982.78;5021647;28;103652;-71
2022/01/02 07:38:47;;;;;;;6.80;6.10;;;;;;;5.52;93.77;98988.03;5019326;27;103215;-71
2022/01/02 07:41:15;;;;;;;7.07;5.70;;;;;;;5.54;94.14;98991.41;5020093;28;102508;-71
2022/01/02 07:43:44;;;;;;;6.73;5.90;;;;;;;5.50;93.71;98998.56;5024607;27;104140;-71
2022/01/02 07:46:13;;;;;;;6.17;5.57;;;;;;;5.63;94.04;98998.84;5022604;27;103221;-71
2022/01/02 07:48:41;;;;;;;6.70;5.97;;;;;;;5.50;93.79;98995.13;5019686;28;103212;-71
2022/01/02 07:51:09;;;;;;;6.93;5.57;;;;;;;5.62;94.12;98994.50;5015615;28;103767;-71
2022/01/02 07:53:37;;;;;;;6.03;5.20;;;;;;;5.79;93.48;98995.41;5010070;28;104265;-71
2022/01/02 07:56:07;;;;;;;5.97;5.43;;;;;;;5.89;93.01;98992.38;5018272;28;103920;-71
2022/01/02 07:58:35;;;;;;;6.10;5.50;;;;;;;5.93;92.59;98994.78;5016197;28;104362;-71
2022/01/02 08:01:03;;;;;;;6.30;5.70;;;;;;;5.84;92.48;99000.41;5015917;28;103100;-71
2022/01/02 08:03:31;;;;;;;6.27;5.00;;;;;;;6.01;92.64;98994.38;5020787;27;103003;-71
2022/01/02 08:06:02;;;;;;;4.13;3.80;;;;;;;6.16;92.12;98994.50;5012855;28;104061;-71
2022/01/02 08:08:30;;;;;;;6.73;5.37;;;;;;;6.18;91.47;98992.63;5019514;27;103295;-71
2022/01/02 08:10:58;;;;;;;7.27;5.73;;;;;;;6.21;91.89;98987.25;5018118;27;102649;-70
2022/01/02 08:13:27;;;;;;;4.83;4.33;;;;;;;6.28;91.55;98996.50;5021714;27;103449;-73
2022/01/02 08:15:55;;;;;;;5.20;4.70;;;;;;;6.29;91.15;98998.19;5017091;27;103251;-73
2022/01/02 08:18:23;;;;;;;6.73;5.27;;;;;;;6.40;90.15;98993.25;5020142;28;104326;-73
2022/01/02 08:20:51;;;;;;;5.23;4.67;;;;;;;6.40;90.23;98990.63;5018722;28;102907;-73
2022/01/02 08:23:19;;;;;;;6.00;5.40;;;;;;;6.40;89.80;98990.63;5022849;27;102686;-73
2022/01/02 08:25:47;;;;;;;5.40;4.90;;;;;;;6.63;90.03;98999.09;5019865;27;103633;-73
2022/01/02 08:28:15;;;;;;;6.07;5.00;;;;;;;7.16;88.15;98989.25;5022915;27;103181;-73
2022/01/02 08:30:44;;;;;;;5.70;4.70;;;;;;;7.38;86.77;98992.41;5020819;27;102604;-73
2022/01/02 08:33:12;;;;;;;4.17;3.77;;;;;;;7.51;87.03;98996.06;5013238;28;102941;-73
2022/01/02 08:35:44;;;;;;;4.53;4.13;;;;;;;7.92;85.95;98992.88;5022549;27;103199;-73
2022/01/02 08:38:13;;;;;;;4.70;4.27;;;;;;;8.03;83.72;98986.06;5021277;27;103303;-73
2022/01/02 08:40:42;;;;;;;5.17;4.67;;;;;;;7.89;83.61;98979.91;5021075;27;102568;-73
2022/01/02 08:43:10;;;;;;;4.50;4.10;;;;;;;7.83;85.17;98975.84;5008298;28;103749;-73
2022/01/02 08:45:39;;;;;;;4.87;4.47;;;;;;;7.59;85.98;98985.97;5019306;27;103218;-73
2022/01/02 08:48:08;;;;;;;5.37;4.87;;;;;;;7.77;85.55;98972.72;5017536;28;103691;-73
2022/01/02 08:50:36;;;;;;;6.20;5.33;;;;;;;8.06;84.46;98979.78;5020351;27;102701;-73
2022/01/02 08:53:04;;;;;;;4.00;3.60;;;;;;;8.45;83.81;98977.50;5020771;27;103605;-73
2022/01/02 08:55:34;;;;;;;4.03;3.63;;;;;;;8.48;81.99;98982.56;5017828;27;103227;-73
2022/01/02 08:58:02;;;;;;;5.80;5.20;;;;;;;8.40;81.49;98981.34;5020827;27;103359;-74
2022/01/02 09:00:31;;;;;;;4.97;4.40;;;;;;;8.24;83.17;98976.09;5020729;27;102680;-73
2022/01/02 09:02:59;;;;;;;5.43;4.87;;;;;;;8.02;84.07;98988.81;5019681;27;104028;-73
2022/01/02 09:05:29;;;;;;;8.13;5.73;;;;;;;7.94;84.29;98985.78;5021916;27;103194;-73
2022/01/02 09:07:57;;;;;;;4.47;4.07;;;;;;;8.18;84.54;98995.72;5020266;27;103265;-73
2022/01/02 09:10:25;;;;;;;4.57;4.07;;;;;;;8.35;83.06;98996.56;5011964;28;103787;-73
2022/01/02 09:12:53;;;;;;;6.50;5.37;;;;;;;8.39;82.22;98998.94;5019044;28;102673;-73
2022/01/02 09:15:21;;;;;;;5.77;4.90;;;;;;;8.44;82.80;99001.28;5020026;27;103548;-74
2022/01/02 09:17:50;;;;;;;4.23;3.90;;;;;;;8.70;81.51;98988.25;5019431;28;103323;-73
2022/01/02 09:20:18;;;;;;;5.00;4.50;;;;;;;8.92;79.79;98986.97;5003251;28;102626;-73
2022/01/02 09:22:47;;;;;;;4.60;4.20;;;;;;;8.81;79.82;98979.72;5012456;28;102874;-73
2022/01/02 09:25:15;;;;;;;5.37;4.40;;;;;;;8.79;80.65;98978.09;5017730;28;103611;-73
2022/01/02 09:27:44;;;;;;;5.40;4.90;;;;;;;8.70;81.11;98969.81;5005207;28;103089;-73
2022/01/02 09:30:13;;;;;;;5.20;4.67;;;;;;;8.74;81.40;98979.25;5019666;27;102530;-73
2022/01/02 09:32:42;;;;;;;5.27;4.77;;;;;;;8.73;80.55;98982.81;5019322;27;104382;-74
2022/01/02 09:35:11;;;;;;;4.43;4.03;;;;;;;8.85;81.21;98972.47;5019257;27;103157;-74
2022/01/02 09:37:39;;;;;;;5.50;4.90;;;;;;;8.74;80.59;98979.25;5019733;27;103186;-74
2022/01/02 09:40:09;;;;;;;4.97;4.43;;;;;;;8.88;80.59;98988.94;5020768;27;102538;-73
2022/01/02 09:42:39;;;;;;;4.97;4.20;;;;;;;8.92;80.34;98992.25;5017888;27;103506;-73
2022/01/02 09:45:08;;;;;;;5.50;4.97;;;;;;;8.73;80.42;99006.50;5018863;27;103710;-74
2022/01/02 09:47:37;;;;;;;6.13;4.63;;;;;;;8.63;81.00;99012.44;5021580;27;103169;-74
2022/01/02 09:50:10;;;;;;;5.83;4.43;;;;;;;8.87;81.40;98996.94;5019043;28;102553;-74
2022/01/02 09:52:38;;;;;;;4.83;4.17;;;;;;;9.00;80.71;98995.25;5020192;27;103142;-74
2022/01/02 09:55:07;;;;;;;5.03;4.60;;;;;;;9.07;80.14;98988.66;5018573;28;103250;-74
2022/01/02 09:57:36;;;;;;;5.23;4.20;;;;;;;9.04;81.24;98981.78;5019965;27;103156;-73
2022/01/02 10:00:05;;;;;;;4.27;3.87;;;;;;;9.03;80.35;98989.78;5020162;27;102591;-74
2022/01/02 10:02:59;;;;;;;4.67;4.20;;;;;;;9.12;80.37;98983.97;5018487;27;102628;-74
2022/01/02 10:05:30;;;;;;;4.80;4.40;;;;;;;9.02;79.31;98974.91;5010486;28;104054;-74
2022/01/02 10:07:58;;;;;;;4.43;4.13;;;;;;;9.07;79.80;98971.06;5021457;27;102972;-73
2022/01/02 10:10:34;;;;;;;5.60;5.10;;;;;;;8.85;79.55;98970.69;5021559;27;102581;-74
2022/01/02 10:13:04;;;;;;;4.30;3.90;;;;;;;9.06;80.68;98968.53;5019100;27;102664;-71
2022/01/02 10:15:34;;;;;;;6.10;5.27;;;;;;;8.90;80.55;98978.31;5017272;27;103244;-68
2022/01/02 10:18:05;;;;;;;4.50;3.77;;;;;;;9.00;79.94;98968.91;5021530;27;104588;-70
2022/01/02 10:20:38;;;;;;;3.93;3.53;;;;;;;9.05;80.86;98967.69;5019074;28;102596;-68
2022/01/02 10:23:14;;;;;;;6.20;5.57;;;;;;;8.54;80.50;98963.78;5020259;28;103576;-71
2022/01/02 10:26:01;;;;;;;5.80;5.30;;;;;;;8.63;81.16;98971.13;5019235;27;103202;-65
2022/01/02 10:28:37;;;;;;;4.63;4.23;;;;;;;8.77;81.47;98966.81;5016017;28;103213;-66
2022/01/02 10:31:08;;;;;;;5.70;4.27;;;;;;;8.87;80.98;98962.69;5020642;27;102620;-64
2022/01/02 10:33:48;;;;;;;4.30;3.80;;;;;;;9.05;80.66;98958.91;5024214;27;103460;-67
2022/01/02 10:36:25;;;;;;;5.60;5.10;;;;;;;9.52;78.50;98946.22;5020999;27;103299;-66
2022/01/02 10:39:06;;;;;;;6.20;5.60;;;;;;;9.70;77.53;98934.50;5019558;28;103348;-66
2022/01/02 10:41:38;;;;;;;6.07;5.00;;;;;;;9.32;77.74;98922.91;5022119;28;102616;-64
2022/01/02 10:44:21;;;;;;;6.10;5.50;;;;;;;8.83;78.95;98919.03;5022307;27;103845;-60
2022/01/02 10:47:17;;;;;;;5.63;4.97;;;;;;;9.00;80.16;98910.91;5021847;27;103222;-60
2022/01/02 10:49:51;;;;;;;7.37;4.80;;;;;;;9.21;80.20;98912.19;4973677;28;103164;-61
2022/01/02 10:52:21;;;;;;;5.60;5.10;;;;;;;9.18;79.68;98899.19;5003207;28;102661;-67
2022/01/02 10:54:52;;;;;;;6.73;5.03;;;;;;;9.23;79.31;98892.69;5026525;27;103878;-72
2022/01/02 10:57:21;;;;;;;5.30;4.80;;;;;;;9.22;79.31;98901.56;5021106;28;103204;-69
2022/01/02 10:59:50;;;;;;;4.60;4.20;;;;;;;9.23;78.72;98894.50;5021240;28;103219;-69
2022/01/02 11:02:18;;;;;;;5.00;4.57;;;;;;;9.23;79.02;98894.50;5011184;28;102656;-69
2022/01/02 11:04:49;;;;;;;5.30;4.80;;;;;;;9.32;79.21;98907.09;5009635;28;102678;-69
2022/01/02 11:07:21;;;;;;;5.80;5.03;;;;;;;9.44;78.30;98911.59;5024873;27;104225;-69
2022/01/02 11:09:53;;;;;;;4.90;4.40;;;;;;;9.47;78.88;98919.28;5022784;27;103194;-69
2022/01/02 11:12:26;;;;;;;4.73;4.17;;;;;;;9.36;78.87;98929.69;5006491;28;102612;-69
2022/01/02 11:14:56;;;;;;;6.53;5.50;;;;;;;9.32;78.70;98917.63;5022059;28;103960;-67
2022/01/02 11:17:25;;;;;;;5.30;4.80;;;;;;;9.41;79.55;98911.78;5019756;28;103719;-68
2022/01/02 11:19:53;;;;;;;5.97;4.93;;;;;;;9.45;78.96;98913.28;5023216;27;103257;-67
2022/01/02 11:22:30;;;;;;;6.70;5.10;;;;;;;9.47;79.44;98910.53;5008484;28;102719;-68
2022/01/02 11:25:06;;;;;;;4.93;4.17;;;;;;;9.68;79.40;98925.84;5021592;27;103860;-68
2022/01/02 11:27:41;;;;;;;4.00;3.70;;;;;;;9.84;78.61;98921.25;5018819;27;104280;-68
2022/01/02 11:30:40;;;;;;;5.70;5.20;;;;;;;9.80;78.49;98911.81;5021335;27;103171;-68
2022/01/02 11:33:12;;;;;;;5.07;3.97;;;;;;;9.96;79.71;98922.22;5020216;28;102911;-67
2022/01/02 11:35:43;;;;;;;6.87;5.80;;;;;;;9.83;79.38;98911.63;5022128;27;103482;-67
2022/01/02 11:38:13;;;;;;;5.10;4.67;;;;;;;9.90;79.83;98902.38;5017836;27;103232;-67
2022/01/02 11:41:01;;;;;;;5.73;5.13;;;;;;;9.96;79.55;98887.06;5009962;28;103425;-68
2022/01/02 11:43:52;;;;;;;5.27;4.77;;;;;;;9.96;79.66;98892.34;5019486;27;102575;-67
2022/01/02 11:46:28;;;;;;;6.57;5.97;;;;;;;9.88;79.49;98874.38;5019807;27;103914;-68
2022/01/02 11:49:17;;;;;;;6.07;5.10;;;;;;;9.83;80.31;98882.59;5016352;27;103985;-68